createdAt,value
2023-02-13T00:00:37.313Z,37.15
2023-02-13T00:03:05.023Z,666.40
2023-02-13T00:05:31.383Z,656.40
2023-02-13T00:08:06.355Z,176.98
2023-02-13T00:10:39.351Z,766.65
2023-02-13T00:13:05.683Z,44.08
2023-02-13T00:15:39.310Z,42.88
2023-02-13T00:18:05.685Z,45.70
2023-02-13T00:20:38.315Z,25.83
2023-02-13T00:23:11.316Z,38.67
2023-02-13T00:25:45.310Z,40.67
2023-02-13T00:28:11.770Z,41.45
2023-02-13T00:30:44.354Z,342.15
2023-02-13T00:33:17.308Z,43.60
2023-02-13T00:35:50.355Z,674.83
2023-02-13T00:38:23.345Z,1027.82
2023-02-13T00:40:49.639Z,1084.47
2023-02-13T00:43:22.339Z,43.03
2023-02-13T00:45:48.673Z,35.80
2023-02-13T00:48:15.000Z,29.27
2023-02-13T00:50:48.361Z,28.23
2023-02-13T00:53:14.666Z,279.42
2023-02-13T00:55:40.956Z,753.90
2023-02-13T00:58:14.439Z,31.15
2023-02-13T01:00:41.052Z,33.72
2023-02-13T01:03:07.544Z,34.25
2023-02-13T01:05:40.368Z,31.35
2023-02-13T01:08:07.693Z,34.70
2023-02-13T01:10:41.369Z,69.30
2023-02-13T01:13:08.846Z,38.03
2023-02-13T01:15:49.638Z,50.92
2023-02-13T01:18:22.720Z,48.70
2023-02-13T01:21:10.432Z,61.45
2023-02-13T01:23:41.155Z,946.45
2023-02-13T01:26:19.436Z,94.90
2023-02-13T01:28:45.930Z,41.58
2023-02-13T01:31:18.506Z,44.63
2023-02-13T01:33:51.409Z,64.13
2023-02-13T01:36:24.445Z,54.33
2023-02-13T01:38:56.409Z,57.40
2023-02-13T01:41:30.544Z,69.28
2023-02-13T01:43:59.601Z,305.27
2023-02-13T01:46:50.519Z,64.22
2023-02-13T01:49:23.944Z,49.70
2023-02-13T01:52:01.440Z,42.70
2023-02-13T01:54:32.042Z,43.42
2023-02-13T01:57:10.462Z,44.88
2023-02-13T02:00:07.470Z,46.10
2023-02-13T02:02:46.591Z,49.88
2023-02-13T02:05:13.447Z,550.80
2023-02-13T02:07:41.393Z,100.75
2023-02-13T02:10:25.489Z,50.45
2023-02-13T02:13:11.488Z,318.63
2023-02-13T02:15:45.542Z,104.35
2023-02-13T02:18:31.548Z,64.13
2023-02-13T02:21:22.530Z,293.10
2023-02-13T02:24:23.515Z,51.83
2023-02-13T02:27:28.835Z,160.95
2023-02-13T02:30:20.582Z,28.10
2023-02-13T02:33:16.529Z,131.77
2023-02-13T02:36:22.618Z,120.18
2023-02-13T02:39:18.535Z,31.08
2023-02-13T02:42:17.575Z,233.52
2023-02-13T02:44:58.823Z,699.00
2023-02-13T02:47:56.557Z,54.22
2023-02-13T02:50:32.998Z,381.25
2023-02-13T02:53:31.564Z,48.67
2023-02-13T02:56:22.536Z,32.75
2023-02-13T02:59:11.025Z,74.85
2023-02-13T03:02:04.562Z,25.60
2023-02-13T03:05:03.568Z,1204.55
2023-02-13T03:07:30.084Z,1388.90
2023-02-13T03:10:24.585Z,1962.13
2023-02-13T03:13:28.589Z,361.27
2023-02-13T03:16:27.615Z,911.38
2023-02-13T03:19:16.325Z,34.00
2023-02-13T03:22:24.612Z,121.30
2023-02-13T03:25:18.651Z,940.22
2023-02-13T03:28:31.675Z,99.45
2023-02-13T03:31:14.848Z,78.60
2023-02-13T03:34:22.653Z,41.38
2023-02-13T03:37:46.957Z,547.03
2023-02-13T03:40:28.626Z,825.08
2023-02-13T03:43:08.441Z,83.35
2023-02-13T03:45:59.697Z,438.35
2023-02-13T03:48:53.375Z,49.25
2023-02-13T03:51:34.648Z,239.18
2023-02-13T03:54:05.178Z,24.35
2023-02-13T03:57:07.648Z,21.73
2023-02-13T03:59:36.365Z,41.50
2023-02-13T04:02:18.720Z,28.15
2023-02-13T04:05:04.180Z,22.98
2023-02-13T04:07:39.678Z,30.35
2023-02-13T04:10:09.208Z,60.33
2023-02-13T04:12:45.685Z,23.13
2023-02-13T04:15:24.733Z,29.55
2023-02-13T04:18:13.767Z,20.85
2023-02-13T04:20:40.250Z,24.45
2023-02-13T04:23:10.700Z,29.60
2023-02-13T04:25:46.705Z,51.22
2023-02-13T04:28:13.026Z,25.42
2023-02-13T04:30:39.723Z,26.52
2023-02-13T04:33:12.751Z,65.18
2023-02-13T04:35:45.743Z,850.08
2023-02-13T04:38:20.848Z,409.00
2023-02-13T04:40:47.187Z,809.90
2023-02-13T04:43:13.478Z,35.33
2023-02-13T04:45:46.764Z,686.00
2023-02-13T04:48:13.210Z,33.58
2023-02-13T04:50:39.552Z,117.85
2023-02-13T04:53:12.768Z,469.95
2023-02-13T04:55:39.142Z,825.00
2023-02-13T04:58:12.037Z,57.50
2023-02-13T05:00:38.555Z,1999.90
2023-02-13T05:03:15.123Z,1736.93
2023-02-13T05:05:41.513Z,1321.55
2023-02-13T05:08:14.766Z,1999.90
2023-02-13T05:10:47.787Z,313.23
2023-02-13T05:13:20.798Z,23.92
2023-02-13T05:16:01.889Z,378.45
2023-02-13T05:18:28.274Z,31.67
2023-02-13T05:21:19.809Z,25.13
2023-02-13T05:23:48.405Z,1999.90
2023-02-13T05:26:17.575Z,32.20
2023-02-13T05:29:08.916Z,1999.90
2023-02-13T05:31:35.496Z,1432.15
2023-02-13T05:34:08.801Z,1292.57
2023-02-13T05:36:35.240Z,550.83
2023-02-13T05:39:01.519Z,247.82
2023-02-13T05:41:33.859Z,46.75
2023-02-13T05:44:06.878Z,1412.15
2023-02-13T05:46:39.946Z,38.85
2023-02-13T05:49:07.964Z,302.73
2023-02-13T05:51:34.290Z,59.08
2023-02-13T05:54:06.825Z,858.65
2023-02-13T05:56:33.117Z,64.07
2023-02-13T05:58:59.602Z,1999.90
2023-02-13T06:01:33.906Z,1999.90
2023-02-13T06:04:06.917Z,84.70
2023-02-13T06:06:33.449Z,35.55
2023-02-13T06:09:06.890Z,27.30
2023-02-13T06:11:33.188Z,28.23
2023-02-13T06:14:05.896Z,30.65
2023-02-13T06:16:52.883Z,1999.90
2023-02-13T06:19:26.885Z,1250.68
2023-02-13T06:21:53.200Z,1461.60
2023-02-13T06:24:19.583Z,41.72
2023-02-13T06:26:52.896Z,27.00
2023-02-13T06:29:26.019Z,31.85
2023-02-13T06:31:52.421Z,785.45
2023-02-13T06:34:18.870Z,31.27
2023-02-13T06:36:51.926Z,30.48
2023-02-13T06:39:24.926Z,43.40
2023-02-13T06:41:57.923Z,33.33
2023-02-13T06:44:30.947Z,1999.90
2023-02-13T06:46:57.361Z,1999.90
2023-02-13T06:49:23.843Z,1999.90
2023-02-13T06:51:56.926Z,1997.80
2023-02-13T06:54:33.884Z,54.67
2023-02-13T06:57:14.962Z,29.83
2023-02-13T06:59:41.493Z,30.83
2023-02-13T07:02:10.371Z,34.20
2023-02-13T07:04:42.943Z,205.40
2023-02-13T07:07:09.308Z,38.25
2023-02-13T07:09:35.786Z,402.08
2023-02-13T07:12:11.007Z,1206.55
2023-02-13T07:14:57.978Z,188.02
2023-02-13T07:17:32.566Z,206.70
2023-02-13T07:20:01.963Z,473.50
2023-02-13T07:22:28.386Z,71.25
2023-02-13T07:25:00.996Z,1999.90
2023-02-13T07:27:34.029Z,1999.90
2023-02-13T07:30:07.090Z,1999.90
2023-02-13T07:32:35.061Z,1713.47
2023-02-13T07:35:02.657Z,285.00
2023-02-13T07:37:39.091Z,138.95
2023-02-13T07:40:09.057Z,26.35
2023-02-13T07:42:42.049Z,1999.90
2023-02-13T07:45:15.039Z,42.90
2023-02-13T07:47:42.108Z,28.05
2023-02-13T07:50:16.082Z,26.38
2023-02-13T07:52:42.420Z,1630.88
2023-02-13T07:55:11.368Z,1450.75
2023-02-13T07:57:44.243Z,1579.80
2023-02-13T08:00:20.230Z,1052.53
2023-02-13T08:02:46.631Z,834.25
2023-02-13T08:05:13.888Z,1713.35
2023-02-13T08:07:47.080Z,1483.10
2023-02-13T08:10:39.160Z,1474.25
2023-02-13T08:13:14.093Z,1999.90
2023-02-13T08:15:47.310Z,1999.90
2023-02-13T08:18:13.697Z,1999.90
2023-02-13T08:20:46.097Z,1999.90
2023-02-13T08:23:19.196Z,1999.90
2023-02-13T08:25:47.522Z,1819.20
2023-02-13T08:28:13.957Z,1961.70
2023-02-13T08:30:47.221Z,1999.18
2023-02-13T08:33:13.555Z,792.17
2023-02-13T08:35:39.904Z,187.77
2023-02-13T08:38:13.175Z,187.00
2023-02-13T08:40:48.197Z,222.70
2023-02-13T08:43:14.606Z,35.45
2023-02-13T08:45:47.136Z,52.83
2023-02-13T08:48:20.192Z,43.25
2023-02-13T08:50:46.510Z,38.65
2023-02-13T08:53:19.239Z,201.23
2023-02-13T08:55:56.756Z,28.73
2023-02-13T08:58:30.251Z,34.28
2023-02-13T09:00:56.785Z,34.40
2023-02-13T09:03:23.165Z,35.75
2023-02-13T09:05:56.317Z,40.58
2023-02-13T09:08:32.171Z,35.85
2023-02-13T09:11:08.206Z,33.03
2023-02-13T09:13:36.923Z,35.88
2023-02-13T09:16:21.238Z,40.25
2023-02-13T09:18:48.788Z,38.90
2023-02-13T09:21:15.812Z,34.80
2023-02-13T09:23:48.237Z,37.78
2023-02-13T09:26:19.762Z,36.50
2023-02-13T09:31:46.730Z,37.40
2023-02-13T09:34:20.236Z,41.33
2023-02-13T09:36:53.261Z,38.80
2023-02-13T09:39:19.937Z,38.55
2023-02-13T09:41:56.279Z,39.47
2023-02-13T09:44:34.254Z,45.00
2023-02-13T09:47:18.246Z,36.15
2023-02-13T09:49:50.465Z,33.67
2023-02-13T09:52:16.871Z,36.72
2023-02-13T09:54:49.256Z,37.83
2023-02-13T09:57:40.403Z,39.58
2023-02-13T10:00:28.132Z,37.58
2023-02-13T10:03:05.348Z,38.15
2023-02-13T10:05:41.285Z,31.83
2023-02-13T10:08:33.363Z,37.40
2023-02-13T10:11:33.323Z,37.47
2023-02-13T10:14:15.161Z,35.50
2023-02-13T10:16:55.360Z,32.53
2023-02-13T10:19:49.390Z,34.10
2023-02-13T10:22:43.324Z,34.42
2023-02-13T10:25:26.978Z,33.25
2023-02-13T10:28:05.552Z,33.67
2023-02-13T10:30:35.383Z,33.85
2023-02-13T10:33:25.397Z,32.75
2023-02-13T10:36:10.004Z,30.60
2023-02-13T10:38:52.326Z,27.90
2023-02-13T10:42:07.369Z,26.17
2023-02-13T10:45:17.357Z,28.20
2023-02-13T10:48:16.508Z,27.45
2023-02-13T10:50:53.426Z,25.65
2023-02-13T10:53:44.625Z,25.27
2023-02-13T10:56:26.939Z,25.88
2023-02-13T10:59:12.378Z,30.70
2023-02-13T11:01:53.437Z,28.08
2023-02-13T11:04:26.522Z,23.70
2023-02-13T11:06:58.776Z,31.33
2023-02-13T11:09:25.717Z,32.85
2023-02-13T11:11:59.513Z,40.78
2023-02-13T11:14:27.001Z,36.65
2023-02-13T11:17:10.426Z,38.08
2023-02-13T11:19:46.408Z,35.05
2023-02-13T11:22:15.892Z,31.90
2023-02-13T11:25:02.421Z,38.10
2023-02-13T11:27:34.356Z,35.20
2023-02-13T11:30:33.643Z,34.50
2023-02-13T11:33:12.457Z,36.28
2023-02-13T11:35:46.457Z,33.45
2023-02-13T11:38:14.354Z,33.33
2023-02-13T11:40:50.456Z,33.38
2023-02-13T11:43:35.116Z,30.67
2023-02-13T11:46:17.264Z,32.88
2023-02-13T11:48:55.814Z,33.42
2023-02-13T11:51:41.504Z,33.25
2023-02-13T11:54:38.807Z,31.27
2023-02-13T11:57:26.519Z,35.20
2023-02-13T12:00:00.513Z,29.25
2023-02-13T12:02:30.384Z,31.13
2023-02-13T12:05:26.309Z,33.10
2023-02-13T12:07:57.212Z,33.53
2023-02-13T12:10:39.501Z,31.95
2023-02-13T12:13:24.220Z,26.17
2023-02-13T12:16:12.588Z,27.65
2023-02-13T12:18:53.789Z,32.78
2023-02-13T12:21:42.699Z,31.60
2023-02-13T12:24:46.450Z,31.63
2023-02-13T12:27:19.624Z,30.65
2023-02-13T12:30:27.833Z,30.65
2023-02-13T12:33:40.589Z,30.00
2023-02-13T12:36:31.698Z,28.55
2023-02-13T12:39:10.592Z,29.67
2023-02-13T12:41:48.743Z,27.90
2023-02-13T12:45:04.620Z,31.30
2023-02-13T12:48:07.591Z,29.88
2023-02-13T12:50:54.344Z,26.17
2023-02-13T12:53:52.654Z,28.90
2023-02-13T12:56:42.719Z,27.00
2023-02-13T12:59:31.674Z,27.30
2023-02-13T13:02:37.648Z,25.20
2023-02-13T13:05:45.214Z,23.92
2023-02-13T13:08:14.372Z,28.23
2023-02-13T13:11:16.728Z,28.42
2023-02-13T13:13:52.033Z,27.77
2023-02-13T13:16:42.652Z,25.35
2023-02-13T13:19:34.825Z,27.48
2023-02-13T13:22:18.648Z,26.60
2023-02-13T13:25:06.671Z,27.67
2023-02-13T13:27:39.759Z,26.60
2023-02-13T13:30:36.780Z,25.33
2023-02-13T13:33:15.440Z,24.77
2023-02-13T13:36:12.079Z,26.95
2023-02-13T13:39:14.568Z,26.67
2023-02-13T13:42:13.697Z,20.45
2023-02-13T13:45:00.611Z,23.02
2023-02-13T13:47:48.691Z,22.90
2023-02-13T13:50:33.758Z,21.58
2023-02-13T13:53:26.716Z,21.92
2023-02-13T13:55:52.998Z,25.77
2023-02-13T13:58:54.751Z,25.23
2023-02-13T14:01:36.811Z,22.83
2023-02-13T14:06:54.742Z,24.88
2023-02-13T14:09:27.135Z,28.33
2023-02-13T14:12:01.741Z,27.13
2023-02-13T14:14:37.730Z,25.70
2023-02-13T14:17:10.789Z,25.25
2023-02-13T14:19:59.046Z,24.20
2023-02-13T14:22:32.764Z,26.17
2023-02-13T14:25:14.823Z,24.77
2023-02-13T14:27:47.812Z,24.90
2023-02-13T14:30:40.860Z,24.50
2023-02-13T14:33:29.802Z,24.75
2023-02-13T14:36:08.854Z,21.05
2023-02-13T14:38:49.838Z,24.00
2023-02-13T14:41:55.918Z,22.42
2023-02-13T14:44:30.883Z,24.85
2023-02-13T14:46:59.997Z,22.15
2023-02-13T14:52:16.728Z,24.35
2023-02-13T14:54:56.926Z,24.13
2023-02-13T14:57:29.309Z,22.90
2023-02-13T15:00:05.821Z,21.63
2023-02-13T15:02:37.793Z,27.55
2023-02-13T15:05:39.854Z,25.17
2023-02-13T15:08:16.111Z,25.02
2023-02-13T15:10:52.876Z,24.20
2023-02-13T15:13:40.900Z,29.05
2023-02-13T15:16:19.393Z,24.50
2023-02-13T15:18:58.868Z,28.50
2023-02-13T15:21:32.864Z,27.10
2023-02-13T15:24:05.888Z,26.15
2023-02-13T15:26:38.934Z,27.80
2023-02-13T15:29:35.210Z,24.10
2023-02-13T15:32:19.263Z,24.63
2023-02-13T15:34:55.942Z,26.52
2023-02-13T15:37:35.973Z,27.85
2023-02-13T15:40:24.892Z,25.70
2023-02-13T15:42:58.962Z,28.95
2023-02-13T15:45:28.323Z,29.17
2023-02-13T15:47:56.230Z,27.73
2023-02-13T15:50:41.920Z,30.77
2023-02-13T15:53:14.856Z,28.83
2023-02-13T15:55:50.973Z,29.08
2023-02-13T15:58:17.389Z,22.95
2023-02-13T16:00:44.632Z,25.73
2023-02-13T16:03:24.950Z,23.45
2023-02-13T16:05:51.424Z,21.70
2023-02-13T16:08:47.980Z,24.05
2023-02-13T16:11:17.098Z,30.67
2023-02-13T16:14:07.974Z,26.60
2023-02-13T16:17:09.967Z,20.98
2023-02-13T16:19:51.028Z,22.30
2023-02-13T16:22:39.461Z,29.60
2023-02-13T16:25:29.292Z,25.05
2023-02-13T16:28:01.016Z,30.75
2023-02-13T16:30:39.075Z,34.35
2023-02-13T16:33:37.658Z,33.08
2023-02-13T16:36:16.015Z,31.33
2023-02-13T16:38:48.195Z,35.08
2023-02-13T16:41:25.032Z,34.67
2023-02-13T16:43:56.572Z,33.97
2023-02-13T16:46:47.092Z,36.55
2023-02-13T16:49:20.813Z,29.25
2023-02-13T16:52:26.072Z,30.70
2023-02-13T16:54:55.574Z,32.70
2023-02-13T16:57:39.468Z,30.27
2023-02-13T17:00:16.993Z,35.47
2023-02-13T17:02:54.077Z,31.60
2023-02-13T17:05:28.313Z,31.90
2023-02-13T17:08:06.065Z,32.75
2023-02-13T17:10:34.984Z,30.48
2023-02-13T17:13:30.113Z,32.72
2023-02-13T17:16:00.083Z,32.70
2023-02-13T17:18:47.114Z,33.58
2023-02-13T17:21:13.829Z,36.70
2023-02-13T17:23:41.103Z,35.00
2023-02-13T17:26:15.212Z,32.70
2023-02-13T17:28:48.104Z,34.72
2023-02-13T17:31:14.539Z,33.53
2023-02-13T17:33:47.142Z,37.25
2023-02-13T17:36:16.354Z,38.33
2023-02-13T17:38:49.172Z,35.50
2023-02-13T17:41:22.290Z,36.90
2023-02-13T17:43:51.109Z,36.45
2023-02-13T17:46:17.697Z,36.47
2023-02-13T17:48:50.172Z,41.97
2023-02-13T17:51:16.538Z,39.10
2023-02-13T17:53:42.917Z,38.15
2023-02-13T17:56:16.147Z,44.78
2023-02-13T17:58:42.580Z,42.20
2023-02-13T18:01:19.238Z,40.47
2023-02-13T18:03:52.216Z,34.40
2023-02-13T18:06:28.171Z,38.97
2023-02-13T18:08:54.560Z,38.75
2023-02-13T18:11:20.859Z,44.72
2023-02-13T18:13:56.495Z,42.85
2023-02-13T18:16:43.211Z,37.55
2023-02-13T18:19:16.222Z,37.15
2023-02-13T18:21:49.285Z,38.25
2023-02-13T18:24:15.682Z,37.28
2023-02-13T18:26:42.045Z,39.42
2023-02-13T18:29:15.229Z,37.17
2023-02-13T18:31:41.707Z,37.75
2023-02-13T18:34:08.325Z,33.55
2023-02-13T18:36:49.499Z,61.30
2023-02-13T18:39:17.080Z,35.03
2023-02-13T18:41:43.437Z,39.65
2023-02-13T18:44:28.115Z,42.55
2023-02-13T18:46:55.129Z,41.42
2023-02-13T18:49:28.264Z,197.30
2023-02-13T18:51:54.603Z,48.13
2023-02-13T18:54:21.413Z,49.53
2023-02-13T18:56:54.293Z,59.03
2023-02-13T18:59:20.755Z,41.15
2023-02-13T19:01:53.349Z,195.48
2023-02-13T19:04:19.725Z,49.90
2023-02-13T19:06:52.310Z,41.83
2023-02-13T19:09:25.358Z,44.40
2023-02-13T19:11:51.786Z,221.65
2023-02-13T19:14:34.317Z,585.85
2023-02-13T19:17:10.506Z,48.65
2023-02-13T19:19:44.288Z,51.85
2023-02-13T19:22:17.321Z,66.90
2023-02-13T19:24:43.979Z,69.95
2023-02-13T19:27:17.421Z,65.15
2023-02-13T19:29:43.763Z,477.33
2023-02-13T19:32:10.311Z,1017.65
2023-02-13T19:34:43.334Z,470.00
2023-02-13T19:37:19.388Z,133.30
2023-02-13T19:42:14.242Z,64.70
2023-02-13T19:44:47.343Z,68.75
2023-02-13T19:47:13.678Z,60.47
2023-02-13T19:49:39.999Z,82.68
2023-02-13T19:52:13.375Z,399.58
2023-02-13T19:54:46.387Z,1049.03
2023-02-13T19:57:14.604Z,1120.72
2023-02-13T19:59:40.946Z,146.38
2023-02-13T20:02:27.451Z,89.53
2023-02-13T20:04:53.822Z,527.05
2023-02-13T20:07:20.207Z,160.32
2023-02-13T20:09:55.417Z,602.38
2023-02-13T20:12:22.881Z,68.60
2023-02-13T20:14:55.424Z,72.90
2023-02-13T20:17:35.397Z,61.70
2023-02-13T20:20:09.188Z,60.28
2023-02-13T20:22:42.430Z,60.78
2023-02-13T20:25:15.398Z,174.82
2023-02-13T20:27:45.194Z,41.30
2023-02-13T20:30:14.732Z,444.33
2023-02-13T20:32:49.433Z,267.35
2023-02-13T20:35:15.864Z,47.40
2023-02-13T20:37:49.456Z,291.02
2023-02-13T20:40:22.524Z,52.08
2023-02-13T20:42:48.805Z,51.92
2023-02-13T20:45:15.307Z,53.15
2023-02-13T20:47:49.474Z,49.47
2023-02-13T20:50:15.984Z,201.40
2023-02-13T20:52:48.556Z,56.17
2023-02-13T20:55:15.095Z,48.00
2023-02-13T20:57:48.473Z,50.38
2023-02-13T21:00:21.698Z,43.67
2023-02-13T21:02:48.041Z,50.03
2023-02-13T21:05:14.550Z,48.83
2023-02-13T21:07:49.448Z,63.60
2023-02-13T21:10:24.807Z,58.13
2023-02-13T21:12:51.120Z,266.75
2023-02-13T21:15:25.502Z,66.65
2023-02-13T21:17:58.499Z,194.88
2023-02-13T21:20:36.098Z,1249.70
2023-02-13T21:23:09.725Z,322.23
2023-02-13T21:25:36.237Z,245.93
2023-02-13T21:28:02.582Z,878.33
2023-02-13T21:30:35.492Z,66.22
2023-02-13T21:33:08.608Z,46.88
2023-02-13T21:35:41.604Z,55.95
2023-02-13T21:38:08.089Z,35.70
2023-02-13T21:40:41.592Z,1227.47
2023-02-13T21:43:14.524Z,664.13
2023-02-13T21:45:41.042Z,662.60
2023-02-13T21:48:07.350Z,33.45
2023-02-13T21:50:40.533Z,34.72
2023-02-13T21:53:06.814Z,31.48
2023-02-13T21:55:39.571Z,1999.90
2023-02-13T21:58:06.082Z,1342.90
2023-02-13T22:00:32.547Z,1999.90
2023-02-13T22:03:08.068Z,1999.90
2023-02-13T22:05:40.603Z,112.45
2023-02-13T22:08:12.712Z,37.03
2023-02-13T22:10:48.581Z,36.33
2023-02-13T22:13:21.661Z,29.40
2023-02-13T22:15:58.637Z,34.13
2023-02-13T22:18:31.653Z,271.23
2023-02-13T22:21:06.363Z,840.35
2023-02-13T22:23:43.627Z,1999.90
2023-02-13T22:26:28.648Z,1425.18
2023-02-13T22:29:06.628Z,1999.90
2023-02-13T22:31:39.744Z,1022.40
2023-02-13T22:34:12.624Z,63.08
2023-02-13T22:36:39.404Z,39.92
2023-02-13T22:39:13.844Z,33.35
2023-02-13T22:41:40.922Z,35.67
2023-02-13T22:44:07.255Z,30.67
2023-02-13T22:46:40.760Z,689.13
2023-02-13T22:49:16.767Z,40.72
2023-02-13T22:51:43.092Z,33.65
2023-02-13T22:54:16.647Z,31.10
2023-02-13T22:56:45.845Z,26.08
2023-02-13T22:59:18.723Z,33.58
2023-02-13T23:01:45.072Z,335.77
2023-02-13T23:04:18.752Z,677.20
2023-02-13T23:06:45.228Z,36.38
2023-02-13T23:09:18.716Z,35.30
2023-02-13T23:12:03.708Z,34.03
2023-02-13T23:14:36.696Z,1996.50
2023-02-13T23:17:28.705Z,1678.78
2023-02-13T23:20:02.026Z,475.65
2023-02-13T23:22:34.752Z,56.28
2023-02-13T23:25:05.596Z,847.13
2023-02-13T23:27:39.699Z,1999.90
2023-02-13T23:30:07.932Z,1999.90
2023-02-13T23:32:40.704Z,237.07
2023-02-13T23:35:14.709Z,68.68
2023-02-13T23:37:48.733Z,51.55
2023-02-13T23:40:16.682Z,1999.90
2023-02-13T23:42:49.730Z,1999.90
2023-02-13T23:45:16.104Z,1999.90
2023-02-13T23:47:48.773Z,90.00
2023-02-13T23:50:15.128Z,39.05
2023-02-13T23:52:41.432Z,29.00
2023-02-13T23:55:14.792Z,29.10
2023-02-13T23:57:41.888Z,36.42
